Search for airport 
image banner adimage banner adimage banner ad
image banner ad

3PA1 - Heart Of Lancaster Rgnl Medical Center

Located in Lititz, United States

ICAO - 3PA1, IATA -

Data provided by Airmate  

General information

Coordinates: N40°7'59" W76°18'39"
Elevation is 419 feet MSL.
 
View others Airports in Pennsylvania

Operational data

Special qualification required
Current time UTC:
Current local time:
Weather at : KLNS - Lancaster ( 2 km )
METAR: KLNS 132053Z 12004KT 10SM OVC027 24/19 A2987 RMK AO2 SLP112 T02390189 58012
TAF: KLNS 131739Z 1318/1418 21005KT P6SM OVC030 FM132100 16005KT P6SM -SHRA VCTS OVC035CB FM140600 13004KT 5SM BR VCSH OVC010 FM141300 26005KT P6SM BKN035
View NOTAMs / SUP AIP / TFR affecting this airport [VIEW]
Communications frequencies: [VIEW]

Runways:

Airport contact information

Address: Lititz United States

Satellite view of 3PA1